sensor_id;sensor_type;location;lat;lon;timestamp;pressure;altitude;pressure_sealevel;temperature;humidity
45525;BME280;31437;58.350;13.828;2022-09-12T00:01:03;100423.25;;;9.55;100.00
45525;BME280;31437;58.350;13.828;2022-09-12T00:03:28;100419.81;;;9.55;100.00
45525;BME280;31437;58.350;13.828;2022-09-12T00:05:53;100427.81;;;9.52;100.00
45525;BME280;31437;58.350;13.828;2022-09-12T00:08:19;100414.00;;;9.48;100.00
45525;BME280;31437;58.350;13.828;2022-09-12T00:10:44;100421.16;;;9.45;100.00
45525;BME280;31437;58.350;13.828;2022-09-12T00:13:09;100422.19;;;9.41;100.00
45525;BME280;31437;58.350;13.828;2022-09-12T00:15:39;100417.31;;;9.33;100.00
45525;BME280;31437;58.350;13.828;2022-09-12T00:18:04;100412.44;;;9.25;100.00
45525;BME280;31437;58.350;13.828;2022-09-12T00:20:30;100407.47;;;9.19;100.00
45525;BME280;31437;58.350;13.828;2022-09-12T00:22:55;100399.81;;;9.15;100.00
45525;BME280;31437;58.350;13.828;2022-09-12T00:25:20;100401.09;;;9.06;100.00
45525;BME280;31437;58.350;13.828;2022-09-12T00:27:45;100400.63;;;8.96;100.00
45525;BME280;31437;58.350;13.828;2022-09-12T00:30:11;100406.22;;;8.89;100.00
45525;BME280;31437;58.350;13.828;2022-09-12T00:32:36;100406.13;;;8.90;100.00
45525;BME280;31437;58.350;13.828;2022-09-12T00:35:02;100401.03;;;8.87;100.00
45525;BME280;31437;58.350;13.828;2022-09-12T00:37:27;100404.63;;;8.84;100.00
45525;BME280;31437;58.350;13.828;2022-09-12T00:39:52;100403.38;;;8.93;100.00
45525;BME280;31437;58.350;13.828;2022-09-12T00:42:17;100402.88;;;8.85;100.00
45525;BME280;31437;58.350;13.828;2022-09-12T00:44:44;100406.88;;;8.73;100.00
45525;BME280;31437;58.350;13.828;2022-09-12T00:47:14;100401.06;;;8.67;100.00
45525;BME280;31437;58.350;13.828;2022-09-12T00:52:26;100392.41;;;8.64;100.00
45525;BME280;31437;58.350;13.828;2022-09-12T00:54:58;100390.00;;;8.60;100.00
45525;BME280;31437;58.350;13.828;2022-09-12T00:57:28;100395.50;;;8.54;100.00
45525;BME280;31437;58.350;13.828;2022-09-12T01:00:10;100390.66;;;8.45;100.00
45525;BME280;31437;58.350;13.828;2022-09-12T01:02:42;100389.31;;;8.34;100.00
45525;BME280;31437;58.350;13.828;2022-09-12T01:05:08;100387.03;;;8.27;100.00
45525;BME280;31437;58.350;13.828;2022-09-12T01:07:34;100388.19;;;8.19;100.00
45525;BME280;31437;58.350;13.828;2022-09-12T01:10:01;100385.94;;;8.10;100.00
45525;BME280;31437;58.350;13.828;2022-09-12T01:12:26;100382.91;;;7.99;100.00
45525;BME280;31437;58.350;13.828;2022-09-12T01:14:52;100380.69;;;7.90;100.00
45525;BME280;31437;58.350;13.828;2022-09-12T01:17:17;100381.09;;;7.79;100.00
45525;BME280;31437;58.350;13.828;2022-09-12T01:25:09;100366.88;;;7.42;100.00
45525;BME280;31437;58.350;13.828;2022-09-12T01:35:44;100364.50;;;7.13;100.00
45525;BME280;31437;58.350;13.828;2022-09-12T01:43:33;100360.09;;;6.91;100.00
45525;BME280;31437;58.350;13.828;2022-09-12T01:48:28;100354.22;;;6.85;100.00
45525;BME280;31437;58.350;13.828;2022-09-12T01:51:03;100351.72;;;6.81;100.00
45525;BME280;31437;58.350;13.828;2022-09-12T01:53:35;100342.31;;;6.77;100.00
45525;BME280;31437;58.350;13.828;2022-09-12T01:56:05;100353.47;;;6.81;100.00
45525;BME280;31437;58.350;13.828;2022-09-12T01:58:37;100345.81;;;6.76;100.00
45525;BME280;31437;58.350;13.828;2022-09-12T02:01:08;100352.75;;;6.77;100.00
45525;BME280;31437;58.350;13.828;2022-09-12T02:03:38;100346.69;;;6.77;100.00
45525;BME280;31437;58.350;13.828;2022-09-12T02:06:11;100356.09;;;6.81;100.00
45525;BME280;31437;58.350;13.828;2022-09-12T02:08:50;100352.41;;;6.87;100.00
45525;BME280;31437;58.350;13.828;2022-09-12T02:11:17;100354.19;;;6.86;100.00
45525;BME280;31437;58.350;13.828;2022-09-12T02:13:43;100349.84;;;6.85;100.00
45525;BME280;31437;58.350;13.828;2022-09-12T02:16:21;100354.22;;;6.85;100.00
45525;BME280;31437;58.350;13.828;2022-09-12T02:18:51;100349.97;;;6.82;100.00
45525;BME280;31437;58.350;13.828;2022-09-12T02:21:17;100351.78;;;6.80;100.00
45525;BME280;31437;58.350;13.828;2022-09-12T02:23:44;100351.78;;;6.80;100.00
45525;BME280;31437;58.350;13.828;2022-09-12T02:26:53;100346.50;;;6.81;100.00
45525;BME280;31437;58.350;13.828;2022-09-12T02:28:59;100339.66;;;6.79;100.00
45525;BME280;31437;58.350;13.828;2022-09-12T02:39:08;100338.66;;;6.83;100.00
45525;BME280;31437;58.350;13.828;2022-09-12T02:41:34;100342.25;;;6.79;100.00
45525;BME280;31437;58.350;13.828;2022-09-12T02:43:59;100343.28;;;6.75;100.00
45525;BME280;31437;58.350;13.828;2022-09-12T02:46:45;100332.03;;;6.73;100.00
45525;BME280;31437;58.350;13.828;2022-09-12T02:49:10;100336.31;;;6.75;100.00
45525;BME280;31437;58.350;13.828;2022-09-12T02:51:37;100335.34;;;6.78;100.00
45525;BME280;31437;58.350;13.828;2022-09-12T02:54:02;100337.94;;;6.78;100.00
45525;BME280;31437;58.350;13.828;2022-09-12T02:56:29;100339.66;;;6.79;100.00
45525;BME280;31437;58.350;13.828;2022-09-12T02:58:55;100333.59;;;6.78;100.00
45525;BME280;31437;58.350;13.828;2022-09-12T03:06:53;100327.47;;;6.79;100.00
45525;BME280;31437;58.350;13.828;2022-09-12T03:19:44;100330.56;;;6.66;100.00
45525;BME280;31437;58.350;13.828;2022-09-12T03:22:27;100321.94;;;6.64;100.00
45525;BME280;31437;58.350;13.828;2022-09-12T03:25:01;100323.88;;;6.58;100.00
45525;BME280;31437;58.350;13.828;2022-09-12T03:27:35;100325.50;;;6.61;100.00
45525;BME280;31437;58.350;13.828;2022-09-12T03:30:03;100325.47;;;6.63;100.00
45525;BME280;31437;58.350;13.828;2022-09-12T03:35:13;100316.84;;;6.60;100.00
45525;BME280;31437;58.350;13.828;2022-09-12T03:37:39;100315.28;;;6.56;100.00
45525;BME280;31437;58.350;13.828;2022-09-12T03:40:05;100319.69;;;6.54;100.00
45525;BME280;31437;58.350;13.828;2022-09-12T03:42:31;100312.78;;;6.53;100.00
45525;BME280;31437;58.350;13.828;2022-09-12T03:44:56;100315.38;;;6.53;100.00
45525;BME280;31437;58.350;13.828;2022-09-12T03:47:21;100311.06;;;6.52;100.00
45525;BME280;31437;58.350;13.828;2022-09-12T03:49:46;100304.88;;;6.55;100.00
45525;BME280;31437;58.350;13.828;2022-09-12T03:52:12;100302.25;;;6.56;100.00
45525;BME280;31437;58.350;13.828;2022-09-12T03:54:37;100307.38;;;6.58;100.00
45525;BME280;31437;58.350;13.828;2022-09-12T03:57:03;100308.22;;;6.58;100.00
45525;BME280;31437;58.350;13.828;2022-09-12T03:59:29;100307.50;;;6.55;100.00
45525;BME280;31437;58.350;13.828;2022-09-12T04:01:54;100305.81;;;6.54;100.00
45525;BME280;31437;58.350;13.828;2022-09-12T04:04:19;100297.97;;;6.54;100.00
45525;BME280;31437;58.350;13.828;2022-09-12T04:06:44;100300.50;;;6.55;100.00
45525;BME280;31437;58.350;13.828;2022-09-12T04:09:10;100306.59;;;6.56;100.00
45525;BME280;31437;58.350;13.828;2022-09-12T04:11:35;100305.69;;;6.57;100.00
45525;BME280;31437;58.350;13.828;2022-09-12T04:14:00;100307.50;;;6.55;100.00
45525;BME280;31437;58.350;13.828;2022-09-12T04:16:26;100309.13;;;6.57;100.00
45525;BME280;31437;58.350;13.828;2022-09-12T04:18:51;100304.84;;;6.56;100.00
45525;BME280;31437;58.350;13.828;2022-09-12T04:21:17;100311.91;;;6.53;100.00
45525;BME280;31437;58.350;13.828;2022-09-12T04:23:43;100311.06;;;6.52;100.00
45525;BME280;31437;58.350;13.828;2022-09-12T04:26:09;100308.44;;;6.52;100.00
45525;BME280;31437;58.350;13.828;2022-09-12T04:28:35;100306.75;;;6.51;100.00
45525;BME280;31437;58.350;13.828;2022-09-12T04:31:08;100308.34;;;6.55;100.00
45525;BME280;31437;58.350;13.828;2022-09-12T04:33:36;100311.75;;;6.57;100.00
45525;BME280;31437;58.350;13.828;2022-09-12T04:36:05;100307.97;;;6.66;100.00
45525;BME280;31437;58.350;13.828;2022-09-12T04:38:31;100299.06;;;6.72;100.00
45525;BME280;31437;58.350;13.828;2022-09-12T04:40:56;100300.53;;;6.79;100.00
45525;BME280;31437;58.350;13.828;2022-09-12T04:43:21;100302.13;;;6.83;100.00
45525;BME280;31437;58.350;13.828;2022-09-12T04:45:46;100305.41;;;6.88;100.00
45525;BME280;31437;58.350;13.828;2022-09-12T04:48:12;100296.50;;;6.94;100.00
45525;BME280;31437;58.350;13.828;2022-09-12T04:50:37;100297.16;;;7.00;100.00
45525;BME280;31437;58.350;13.828;2022-09-12T04:53:02;100297.69;;;7.09;100.00
45525;BME280;31437;58.350;13.828;2022-09-12T04:55:28;100301.91;;;7.35;100.00
45525;BME280;31437;58.350;13.828;2022-09-12T04:57:53;100308.66;;;7.62;100.00
45525;BME280;31437;58.350;13.828;2022-09-12T05:00:18;100310.03;;;7.93;100.00
45525;BME280;31437;58.350;13.828;2022-09-12T05:02:44;100305.09;;;8.28;100.00
45525;BME280;31437;58.350;13.828;2022-09-12T05:05:10;100317.94;;;8.73;100.00
45525;BME280;31437;58.350;13.828;2022-09-12T05:07:35;100316.56;;;9.04;100.00
45525;BME280;31437;58.350;13.828;2022-09-12T05:10:01;100316.56;;;9.23;100.00
45525;BME280;31437;58.350;13.828;2022-09-12T05:12:28;100300.34;;;9.15;100.00
45525;BME280;31437;58.350;13.828;2022-09-12T05:14:53;100312.59;;;9.33;100.00
45525;BME280;31437;58.350;13.828;2022-09-12T05:17:18;100305.81;;;9.48;100.00
45525;BME280;31437;58.350;13.828;2022-09-12T05:19:44;100300.84;;;9.42;100.00
45525;BME280;31437;58.350;13.828;2022-09-12T05:22:09;100308.91;;;9.37;100.00
45525;BME280;31437;58.350;13.828;2022-09-12T05:24:34;100298.81;;;9.29;100.00
45525;BME280;31437;58.350;13.828;2022-09-12T05:26:59;100301.69;;;9.23;100.00
45525;BME280;31437;58.350;13.828;2022-09-12T05:29:27;100308.66;;;9.24;100.00
45525;BME280;31437;58.350;13.828;2022-09-12T05:31:52;100301.22;;;9.34;100.00
45525;BME280;31437;58.350;13.828;2022-09-12T05:34:18;100298.16;;;9.43;100.00
45525;BME280;31437;58.350;13.828;2022-09-12T05:36:44;100295.81;;;9.56;100.00
45525;BME280;31437;58.350;13.828;2022-09-12T05:39:09;100296.38;;;9.80;100.00
45525;BME280;31437;58.350;13.828;2022-09-12T05:41:35;100299.03;;;9.97;100.00
45525;BME280;31437;58.350;13.828;2022-09-12T05:44:01;100303.50;;;10.13;100.00
45525;BME280;31437;58.350;13.828;2022-09-12T05:46:28;100301.25;;;10.40;100.00
45525;BME280;31437;58.350;13.828;2022-09-12T05:48:54;100311.88;;;10.87;100.00
45525;BME280;31437;58.350;13.828;2022-09-12T05:51:20;100314.91;;;11.45;100.00
45525;BME280;31437;58.350;13.828;2022-09-12T05:53:47;100332.06;;;12.28;100.00
45525;BME280;31437;58.350;13.828;2022-09-12T05:56:14;100331.94;;;12.88;100.00
45525;BME280;31437;58.350;13.828;2022-09-12T05:58:41;100355.16;;;13.25;100.00
45525;BME280;31437;58.350;13.828;2022-09-12T06:01:11;100353.00;;;13.31;100.00
45525;BME280;31437;58.350;13.828;2022-09-12T06:03:40;100379.56;;;13.70;100.00
45525;BME280;31437;58.350;13.828;2022-09-12T06:06:06;100395.13;;;14.14;100.00
45525;BME280;31437;58.350;13.828;2022-09-12T06:08:32;100413.97;;;14.62;100.00
45525;BME280;31437;58.350;13.828;2022-09-12T06:10:59;100419.19;;;14.76;100.00
45525;BME280;31437;58.350;13.828;2022-09-12T06:13:24;100436.69;;;14.90;100.00
45525;BME280;31437;58.350;13.828;2022-09-12T06:15:49;100430.22;;;14.56;100.00
45525;BME280;31437;58.350;13.828;2022-09-12T06:18:15;100434.88;;;14.38;100.00
45525;BME280;31437;58.350;13.828;2022-09-12T06:20:40;100430.09;;;14.18;100.00
45525;BME280;31437;58.350;13.828;2022-09-12T06:23:05;100426.31;;;13.95;100.00
45525;BME280;31437;58.350;13.828;2022-09-12T06:25:31;100438.94;;;13.75;100.00
45525;BME280;31437;58.350;13.828;2022-09-12T06:27:56;100442.44;;;13.76;100.00
45525;BME280;31437;58.350;13.828;2022-09-12T06:30:22;100442.75;;;13.71;100.00
45525;BME280;31437;58.350;13.828;2022-09-12T06:32:47;100452.53;;;13.69;100.00
45525;BME280;31437;58.350;13.828;2022-09-12T06:35:12;100457.78;;;13.69;100.00
45525;BME280;31437;58.350;13.828;2022-09-12T06:37:37;100456.84;;;13.56;100.00
45525;BME280;31437;58.350;13.828;2022-09-12T06:40:03;100461.78;;;13.48;100.00
45525;BME280;31437;58.350;13.828;2022-09-12T06:42:28;100458.75;;;13.39;100.00
45525;BME280;31437;58.350;13.828;2022-09-12T06:44:53;100464.31;;;13.35;100.00
45525;BME280;31437;58.350;13.828;2022-09-12T06:47:19;100469.00;;;13.58;100.00
45525;BME280;31437;58.350;13.828;2022-09-12T06:49:45;100481.78;;;14.20;100.00
45525;BME280;31437;58.350;13.828;2022-09-12T06:52:10;100494.81;;;14.90;100.00
45525;BME280;31437;58.350;13.828;2022-09-12T06:54:35;100515.56;;;15.48;100.00
45525;BME280;31437;58.350;13.828;2022-09-12T06:57:00;100518.72;;;15.65;100.00
45525;BME280;31437;58.350;13.828;2022-09-12T06:59:26;100531.53;;;15.97;100.00
45525;BME280;31437;58.350;13.828;2022-09-12T07:01:51;100538.56;;;16.09;100.00
45525;BME280;31437;58.350;13.828;2022-09-12T07:04:17;100544.59;;;16.11;100.00
45525;BME280;31437;58.350;13.828;2022-09-12T07:06:42;100560.53;;;16.35;100.00
45525;BME280;31437;58.350;13.828;2022-09-12T07:09:10;100567.78;;;16.45;100.00
45525;BME280;31437;58.350;13.828;2022-09-12T07:11:36;100580.00;;;16.58;100.00
45525;BME280;31437;58.350;13.828;2022-09-12T07:14:02;100562.72;;;16.66;100.00
45525;BME280;31437;58.350;13.828;2022-09-12T07:16:28;100587.50;;;16.65;100.00
45525;BME280;31437;58.350;13.828;2022-09-12T07:18:55;100593.94;;;16.73;100.00
45525;BME280;31437;58.350;13.828;2022-09-12T07:21:21;100590.91;;;16.91;100.00
45525;BME280;31437;58.350;13.828;2022-09-12T07:23:47;100594.34;;;17.04;100.00
45525;BME280;31437;58.350;13.828;2022-09-12T07:26:13;100580.31;;;17.15;100.00
45525;BME280;31437;58.350;13.828;2022-09-12T07:28:39;100588.78;;;17.31;100.00
45525;BME280;31437;58.350;13.828;2022-09-12T07:31:15;100592.94;;;17.58;100.00
45525;BME280;31437;58.350;13.828;2022-09-12T07:33:40;100564.00;;;17.66;100.00
45525;BME280;31437;58.350;13.828;2022-09-12T07:36:07;100558.03;;;17.86;100.00
45525;BME280;31437;58.350;13.828;2022-09-12T07:38:34;100520.63;;;17.89;100.00
45525;BME280;31437;58.350;13.828;2022-09-12T07:41:00;100482.63;;;17.89;100.00
45525;BME280;31437;58.350;13.828;2022-09-12T07:43:26;100444.41;;;17.91;100.00
45525;BME280;31437;58.350;13.828;2022-09-12T07:45:55;100403.38;;;17.73;100.00
45525;BME280;31437;58.350;13.828;2022-09-12T07:48:20;100354.06;;;17.70;100.00
45525;BME280;31437;58.350;13.828;2022-09-12T07:50:45;100311.72;;;17.25;100.00
45525;BME280;31437;58.350;13.828;2022-09-12T07:53:11;100297.22;;;17.41;100.00
45525;BME280;31437;58.350;13.828;2022-09-12T07:55:36;100259.84;;;17.44;100.00
45525;BME280;31437;58.350;13.828;2022-09-12T07:58:02;100227.06;;;17.56;100.00
45525;BME280;31437;58.350;13.828;2022-09-12T08:00:27;100198.94;;;17.65;100.00
45525;BME280;31437;58.350;13.828;2022-09-12T08:02:59;100159.34;;;17.41;100.00
45525;BME280;31437;58.350;13.828;2022-09-12T08:05:27;100141.16;;;17.47;100.00
45525;BME280;31437;58.350;13.828;2022-09-12T08:07:54;100122.50;;;17.59;100.00
45525;BME280;31437;58.350;13.828;2022-09-12T08:10:19;100101.44;;;17.78;100.00
45525;BME280;31437;58.350;13.828;2022-09-12T08:12:46;100070.16;;;17.82;100.00
45525;BME280;31437;58.350;13.828;2022-09-12T08:15:12;100047.75;;;17.65;100.00
45525;BME280;31437;58.350;13.828;2022-09-12T08:17:38;100031.56;;;17.68;100.00
45525;BME280;31437;58.350;13.828;2022-09-12T08:20:05;100009.44;;;17.58;100.00
45525;BME280;31437;58.350;13.828;2022-09-12T08:22:30;99997.16;;;17.57;100.00
45525;BME280;31437;58.350;13.828;2022-09-12T08:24:56;99993.53;;;17.58;100.00
45525;BME280;31437;58.350;13.828;2022-09-12T08:27:21;99987.91;;;17.51;100.00
45525;BME280;31437;58.350;13.828;2022-09-12T08:29:47;99986.28;;;17.60;100.00
45525;BME280;31437;58.350;13.828;2022-09-12T08:32:13;99968.47;;;17.41;100.00
45525;BME280;31437;58.350;13.828;2022-09-12T08:34:38;99965.88;;;17.51;100.00
45525;BME280;31437;58.350;13.828;2022-09-12T08:37:03;99973.88;;;17.70;100.00
45525;BME280;31437;58.350;13.828;2022-09-12T08:39:29;99965.41;;;17.76;100.00
45525;BME280;31437;58.350;13.828;2022-09-12T08:41:59;99960.63;;;17.70;100.00
45525;BME280;31437;58.350;13.828;2022-09-12T08:52:15;99947.94;;;17.33;100.00
45525;BME280;31437;58.350;13.828;2022-09-12T08:54:42;99950.38;;;17.25;100.00
45525;BME280;31437;58.350;13.828;2022-09-12T08:57:09;99951.38;;;17.24;100.00
45525;BME280;31437;58.350;13.828;2022-09-12T08:59:43;99943.94;;;17.18;100.00
45525;BME280;31437;58.350;13.828;2022-09-12T09:20:52;99927.94;;;16.98;100.00
45525;BME280;31437;58.350;13.828;2022-09-12T09:28:35;99923.16;;;17.23;100.00
45525;BME280;31437;58.350;13.828;2022-09-12T09:31:03;99915.28;;;17.33;100.00
45525;BME280;31437;58.350;13.828;2022-09-12T09:33:32;99920.72;;;17.41;100.00
45525;BME280;31437;58.350;13.828;2022-09-12T09:36:07;99909.19;;;17.52;100.00
45525;BME280;31437;58.350;13.828;2022-09-12T09:38:41;99902.53;;;17.67;100.00
45525;BME280;31437;58.350;13.828;2022-09-12T09:43:44;99892.03;;;17.56;100.00
45525;BME280;31437;58.350;13.828;2022-09-12T09:46:09;99888.44;;;17.66;100.00
45525;BME280;31437;58.350;13.828;2022-09-12T09:48:36;99886.09;;;17.73;100.00
45525;BME280;31437;58.350;13.828;2022-09-12T09:51:04;99863.03;;;17.64;100.00
45525;BME280;31437;58.350;13.828;2022-09-12T09:56:00;99868.56;;;17.41;100.00
45525;BME280;31437;58.350;13.828;2022-09-12T09:58:31;99859.75;;;17.41;100.00
45525;BME280;31437;58.350;13.828;2022-09-12T10:01:03;99861.66;;;17.29;100.00
45525;BME280;31437;58.350;13.828;2022-09-12T10:03:39;99865.91;;;17.41;100.00
45525;BME280;31437;58.350;13.828;2022-09-12T10:06:20;99858.25;;;17.38;100.00
45525;BME280;31437;58.350;13.828;2022-09-12T10:08:46;99862.56;;;17.39;100.00
45525;BME280;31437;58.350;13.828;2022-09-12T10:11:19;99857.44;;;17.47;100.00
45525;BME280;31437;58.350;13.828;2022-09-12T10:16:16;99847.22;;;17.53;100.00
45525;BME280;31437;58.350;13.828;2022-09-12T10:18:43;99855.22;;;17.62;100.00
45525;BME280;31437;58.350;13.828;2022-09-12T10:21:16;99861.09;;;17.56;100.00
45525;BME280;31437;58.350;13.828;2022-09-12T10:23:43;99859.38;;;17.45;100.00
45525;BME280;31437;58.350;13.828;2022-09-12T10:33:53;99855.44;;;18.00;100.00
45525;BME280;31437;58.350;13.828;2022-09-12T10:36:19;99858.53;;;18.05;100.00
45525;BME280;31437;58.350;13.828;2022-09-12T10:44:16;99843.47;;;17.55;100.00
45525;BME280;31437;58.350;13.828;2022-09-12T10:46:42;99840.41;;;17.50;100.00
45525;BME280;31437;58.350;13.828;2022-09-12T10:51:42;99837.91;;;17.58;100.00
45525;BME280;31437;58.350;13.828;2022-09-12T10:54:09;99826.06;;;17.62;100.00
45525;BME280;31437;58.350;13.828;2022-09-12T10:56:41;99827.34;;;17.78;100.00
45525;BME280;31437;58.350;13.828;2022-09-12T11:01:56;99816.06;;;18.24;100.00
45525;BME280;31437;58.350;13.828;2022-09-12T11:09:29;99804.31;;;18.36;100.00
45525;BME280;31437;58.350;13.828;2022-09-12T11:14:45;99803.19;;;18.39;100.00
45525;BME280;31437;58.350;13.828;2022-09-12T11:20:05;99788.66;;;18.33;100.00
45525;BME280;31437;58.350;13.828;2022-09-12T11:30:03;99788.91;;;18.40;100.00
45525;BME280;31437;58.350;13.828;2022-09-12T11:35:29;99771.16;;;18.50;100.00
45525;BME280;31437;58.350;13.828;2022-09-12T11:45:49;99762.84;;;17.97;100.00
45525;BME280;31437;58.350;13.828;2022-09-12T11:51:25;99770.75;;;17.67;100.00
45525;BME280;31437;58.350;13.828;2022-09-12T11:54:02;99777.34;;;17.63;100.00
45525;BME280;31437;58.350;13.828;2022-09-12T11:56:29;99779.72;;;17.57;100.00
45525;BME280;31437;58.350;13.828;2022-09-12T11:59:02;99784.56;;;17.52;100.00
45525;BME280;31437;58.350;13.828;2022-09-12T12:01:33;99772.97;;;17.43;100.00
45525;BME280;31437;58.350;13.828;2022-09-12T12:04:05;99769.22;;;17.45;100.00
45525;BME280;31437;58.350;13.828;2022-09-12T12:06:35;99778.31;;;17.62;100.00
45525;BME280;31437;58.350;13.828;2022-09-12T12:09:04;99774.72;;;17.83;100.00
45525;BME280;31437;58.350;13.828;2022-09-12T12:11:34;99779.31;;;17.90;100.00
45525;BME280;31437;58.350;13.828;2022-09-12T12:14:05;99788.69;;;18.04;100.00
45525;BME280;31437;58.350;13.828;2022-09-12T12:16:32;99779.31;;;18.10;100.00
45525;BME280;31437;58.350;13.828;2022-09-12T12:19:21;99769.25;;;18.13;100.00
45525;BME280;31437;58.350;13.828;2022-09-12T12:21:44;99771.66;;;18.07;100.00
45525;BME280;31437;58.350;13.828;2022-09-12T12:29:07;99771.38;;;17.81;100.00
45525;BME280;31437;58.350;13.828;2022-09-12T12:32:17;99766.03;;;17.71;100.00
45525;BME280;31437;58.350;13.828;2022-09-12T12:34:37;99763.91;;;17.55;100.00
45525;BME280;31437;58.350;13.828;2022-09-12T12:44:54;99771.41;;;17.21;100.00
45525;BME280;31437;58.350;13.828;2022-09-12T12:47:20;99770.72;;;17.29;100.00
45525;BME280;31437;58.350;13.828;2022-09-12T12:50:07;99764.31;;;17.31;100.00
45525;BME280;31437;58.350;13.828;2022-09-12T12:55:37;99759.28;;;17.38;100.00
45525;BME280;31437;58.350;13.828;2022-09-12T12:58:06;99754.69;;;17.40;100.00
45525;BME280;31437;58.350;13.828;2022-09-12T13:00:42;99757.22;;;17.41;100.00
45525;BME280;31437;58.350;13.828;2022-09-12T13:03:10;99759.16;;;17.49;100.00
45525;BME280;31437;58.350;13.828;2022-09-12T13:05:49;99753.31;;;17.55;100.00
45525;BME280;31437;58.350;13.828;2022-09-12T13:10:47;99752.22;;;17.77;100.00
45525;BME280;31437;58.350;13.828;2022-09-12T13:13:16;99740.91;;;17.75;100.00
45525;BME280;31437;58.350;13.828;2022-09-12T13:15:49;99736.88;;;17.71;100.00
45525;BME280;31437;58.350;13.828;2022-09-12T13:18:25;99733.91;;;17.64;100.00
45525;BME280;31437;58.350;13.828;2022-09-12T13:23:36;99723.31;;;17.45;100.00
45525;BME280;31437;58.350;13.828;2022-09-12T13:26:02;99726.25;;;17.42;100.00
45525;BME280;31437;58.350;13.828;2022-09-12T13:43:54;99711.84;;;17.35;100.00
45525;BME280;31437;58.350;13.828;2022-09-12T13:46:24;99713.09;;;17.40;100.00
45525;BME280;31437;58.350;13.828;2022-09-12T13:48:51;99704.59;;;17.46;100.00
45525;BME280;31437;58.350;13.828;2022-09-12T13:51:20;99705.59;;;17.45;100.00
45525;BME280;31437;58.350;13.828;2022-09-12T13:53:46;99699.56;;;17.43;100.00
45525;BME280;31437;58.350;13.828;2022-09-12T13:58:54;99686.16;;;17.25;100.00
45525;BME280;31437;58.350;13.828;2022-09-12T14:19:30;99662.44;;;17.05;100.00
45525;BME280;31437;58.350;13.828;2022-09-12T14:21:58;99666.34;;;17.00;100.00
45525;BME280;31437;58.350;13.828;2022-09-12T14:24:26;99668.84;;;17.02;100.00
45525;BME280;31437;58.350;13.828;2022-09-12T14:26:52;99665.91;;;17.05;100.00
45525;BME280;31437;58.350;13.828;2022-09-12T14:29:19;99662.31;;;17.06;100.00
45525;BME280;31437;58.350;13.828;2022-09-12T14:31:45;99661.88;;;17.11;100.00
45525;BME280;31437;58.350;13.828;2022-09-12T14:39:02;99660.94;;;17.31;100.00
45525;BME280;31437;58.350;13.828;2022-09-12T14:41:38;99650.19;;;17.33;100.00
45525;BME280;31437;58.350;13.828;2022-09-12T14:44:05;99650.59;;;17.38;100.00
45525;BME280;31437;58.350;13.828;2022-09-12T14:46:33;99646.84;;;17.40;100.00
45525;BME280;31437;58.350;13.828;2022-09-12T14:49:01;99642.50;;;17.39;100.00
45525;BME280;31437;58.350;13.828;2022-09-12T14:51:31;99635.97;;;17.34;100.00
45525;BME280;31437;58.350;13.828;2022-09-12T14:53:58;99630.94;;;17.31;100.00
45525;BME280;31437;58.350;13.828;2022-09-12T14:56:52;99629.94;;;17.32;100.00
45525;BME280;31437;58.350;13.828;2022-09-12T15:04:42;99611.69;;;17.09;100.00
45525;BME280;31437;58.350;13.828;2022-09-12T15:09:44;99618.94;;;16.97;100.00
45525;BME280;31437;58.350;13.828;2022-09-12T15:12:09;99602.88;;;16.89;100.00
45525;BME280;31437;58.350;13.828;2022-09-12T15:14:34;99603.72;;;16.80;100.00
45525;BME280;31437;58.350;13.828;2022-09-12T15:17:00;99599.06;;;16.72;100.00
45525;BME280;31437;58.350;13.828;2022-09-12T15:19:25;99605.59;;;16.68;100.00
45525;BME280;31437;58.350;13.828;2022-09-12T15:21:50;99596.50;;;16.61;100.00
45525;BME280;31437;58.350;13.828;2022-09-12T15:24:15;99599.31;;;16.60;100.00
45525;BME280;31437;58.350;13.828;2022-09-12T15:36:56;99592.91;;;16.62;100.00
45525;BME280;31437;58.350;13.828;2022-09-12T15:39:21;99600.00;;;16.62;100.00
45525;BME280;31437;58.350;13.828;2022-09-12T15:41:47;99592.75;;;16.54;100.00
45525;BME280;31437;58.350;13.828;2022-09-12T15:44:12;99593.03;;;16.51;100.00
45525;BME280;31437;58.350;13.828;2022-09-12T15:46:38;99593.41;;;16.46;100.00
45525;BME280;31437;58.350;13.828;2022-09-12T15:49:04;99589.38;;;16.42;100.00
45525;BME280;31437;58.350;13.828;2022-09-12T15:51:29;99587.13;;;16.38;100.00
45525;BME280;31437;58.350;13.828;2022-09-12T15:53:54;99582.25;;;16.33;100.00
45525;BME280;31437;58.350;13.828;2022-09-12T15:56:20;99588.06;;;16.27;100.00
45525;BME280;31437;58.350;13.828;2022-09-12T15:58:46;99589.56;;;16.20;100.00
45525;BME280;31437;58.350;13.828;2022-09-12T16:01:12;99586.63;;;16.13;100.00
45525;BME280;31437;58.350;13.828;2022-09-12T16:03:37;99587.53;;;16.02;100.00
45525;BME280;31437;58.350;13.828;2022-09-12T16:06:03;99588.06;;;15.96;100.00
45525;BME280;31437;58.350;13.828;2022-09-12T16:08:29;99591.50;;;15.87;100.00
45525;BME280;31437;58.350;13.828;2022-09-12T16:10:57;99584.09;;;15.81;100.00
45525;BME280;31437;58.350;13.828;2022-09-12T16:13:23;99583.91;;;15.73;100.00
45525;BME280;31437;58.350;13.828;2022-09-12T16:15:49;99581.91;;;15.65;100.00
45525;BME280;31437;58.350;13.828;2022-09-12T16:18:15;99579.91;;;15.57;100.00
45525;BME280;31437;58.350;13.828;2022-09-12T16:23:09;99586.22;;;15.45;100.00